createdAt,value
2022-12-24T00:02:26.596Z,14.60
2022-12-24T00:05:00.382Z,16.10
2022-12-24T00:07:28.148Z,18.07
2022-12-24T00:09:55.279Z,13.53
2022-12-24T00:12:22.459Z,11.30
2022-12-24T00:14:49.629Z,19.53
2022-12-24T00:17:16.843Z,16.60
2022-12-24T00:19:44.088Z,15.40
2022-12-24T00:22:11.264Z,13.93
2022-12-24T00:24:38.395Z,15.33
2022-12-24T00:27:06.223Z,13.43
2022-12-24T00:29:34.061Z,15.83
2022-12-24T00:32:01.309Z,13.90
2022-12-24T00:34:28.463Z,13.90
2022-12-24T00:36:55.576Z,14.17
2022-12-24T00:39:22.723Z,15.27
2022-12-24T00:41:49.867Z,19.47
2022-12-24T00:44:17.026Z,15.57
2022-12-24T00:46:44.246Z,16.03
2022-12-24T00:49:12.173Z,17.23
2022-12-24T00:51:39.739Z,18.63
2022-12-24T00:54:07.650Z,16.00
2022-12-24T00:56:35.227Z,18.40
2022-12-24T00:59:02.392Z,17.57
2022-12-24T01:01:30.344Z,17.50
2022-12-24T01:04:17.828Z,19.73
2022-12-24T01:06:45.343Z,12.13
2022-12-24T01:09:12.528Z,16.00
2022-12-24T01:11:39.733Z,16.77
2022-12-24T01:14:06.902Z,16.47
2022-12-24T01:16:34.187Z,13.63
2022-12-24T01:19:01.380Z,16.23
2022-12-24T01:21:28.506Z,14.47
2022-12-24T01:23:55.634Z,13.43
2022-12-24T01:26:22.767Z,15.50
2022-12-24T01:28:49.880Z,13.70
2022-12-24T01:31:19.428Z,11.03
2022-12-24T01:33:47.255Z,17.77
2022-12-24T01:36:14.796Z,16.67
2022-12-24T01:38:42.052Z,16.80
2022-12-24T01:41:32.846Z,17.00
2022-12-24T01:43:59.957Z,14.13
2022-12-24T01:46:29.435Z,18.70
2022-12-24T01:48:57.941Z,12.63
2022-12-24T01:51:28.017Z,15.73
2022-12-24T01:54:04.194Z,17.60
2022-12-24T01:56:33.126Z,21.43
2022-12-24T01:59:08.826Z,12.63
2022-12-24T02:01:36.143Z,16.87
2022-12-24T02:04:05.970Z,14.53
2022-12-24T02:06:33.095Z,15.57
2022-12-24T02:09:00.306Z,20.73
2022-12-24T02:11:27.428Z,18.30
2022-12-24T02:13:57.268Z,16.83
2022-12-24T02:16:36.631Z,17.40
2022-12-24T02:19:18.994Z,18.13
2022-12-24T02:21:50.628Z,18.13
2022-12-24T02:24:23.137Z,17.70
2022-12-24T02:27:05.143Z,12.87
2022-12-24T02:29:51.256Z,18.43
2022-12-24T02:32:27.102Z,17.90
2022-12-24T02:35:10.243Z,20.13
2022-12-24T02:37:38.656Z,14.17
2022-12-24T02:40:17.421Z,14.60
2022-12-24T02:42:47.258Z,12.83
2022-12-24T02:45:16.685Z,16.43
2022-12-24T02:47:44.485Z,17.83
2022-12-24T02:50:12.908Z,17.07
2022-12-24T02:52:42.071Z,17.93
2022-12-24T02:55:09.341Z,19.67
2022-12-24T02:57:42.291Z,15.23
2022-12-24T03:00:11.173Z,19.80
2022-12-24T03:02:47.612Z,18.47
2022-12-24T03:05:24.105Z,19.53
2022-12-24T03:08:03.819Z,21.03
2022-12-24T03:10:53.806Z,19.93
2022-12-24T03:13:21.530Z,18.67
2022-12-24T03:15:50.254Z,17.83
2022-12-24T03:18:18.785Z,13.63
2022-12-24T03:20:48.490Z,16.90
2022-12-24T03:23:15.912Z,14.47
2022-12-24T03:25:43.901Z,16.73
2022-12-24T03:28:12.543Z,23.87
2022-12-24T03:30:40.975Z,16.57
2022-12-24T03:33:08.071Z,15.97
2022-12-24T03:35:35.199Z,15.23
2022-12-24T03:38:02.329Z,16.90
2022-12-24T03:40:29.767Z,17.17
2022-12-24T03:42:56.869Z,14.53
2022-12-24T03:45:24.052Z,13.77
2022-12-24T03:47:51.180Z,23.53
2022-12-24T03:50:18.272Z,16.90
2022-12-24T03:52:45.392Z,16.63
2022-12-24T03:55:12.511Z,15.17
2022-12-24T03:57:39.652Z,15.53
2022-12-24T04:00:07.204Z,16.53
2022-12-24T04:02:35.247Z,18.97
2022-12-24T04:08:24.707Z,19.50
2022-12-24T04:10:51.796Z,14.93
2022-12-24T04:13:18.912Z,16.50
2022-12-24T04:15:46.019Z,19.77
2022-12-24T04:18:13.130Z,16.97
2022-12-24T04:20:40.951Z,22.67
2022-12-24T04:23:08.089Z,13.93
2022-12-24T04:25:35.188Z,14.27
2022-12-24T04:28:02.291Z,16.13
2022-12-24T04:30:29.410Z,12.87
2022-12-24T04:32:56.541Z,14.60
2022-12-24T04:35:23.669Z,19.30
2022-12-24T04:37:50.792Z,14.40
2022-12-24T04:40:17.904Z,19.87
2022-12-24T04:42:45.005Z,14.27
2022-12-24T04:45:12.845Z,18.10
2022-12-24T04:47:40.029Z,16.07
2022-12-24T04:50:07.534Z,16.07
2022-12-24T04:52:34.818Z,17.07
2022-12-24T04:55:01.948Z,18.03
2022-12-24T04:57:29.024Z,24.37
2022-12-24T04:59:56.124Z,18.07
2022-12-24T05:02:23.319Z,15.27
2022-12-24T05:04:50.573Z,10.43
2022-12-24T05:07:17.698Z,17.33
2022-12-24T05:09:44.840Z,15.37
2022-12-24T05:12:11.995Z,15.97
2022-12-24T05:14:39.882Z,18.77
2022-12-24T05:17:07.462Z,19.37
2022-12-24T05:19:34.871Z,14.93
2022-12-24T05:22:20.875Z,18.27
2022-12-24T05:25:06.687Z,19.87
2022-12-24T05:27:33.851Z,18.97
2022-12-24T05:30:01.050Z,15.97
2022-12-24T05:32:28.741Z,17.70
2022-12-24T05:34:55.833Z,19.60
2022-12-24T05:37:22.926Z,16.20
2022-12-24T05:39:50.046Z,18.50
2022-12-24T05:42:17.146Z,17.47
2022-12-24T05:44:44.269Z,19.60
2022-12-24T05:47:11.371Z,15.17
2022-12-24T05:49:38.483Z,21.90
2022-12-24T05:52:05.732Z,14.03
2022-12-24T05:54:32.867Z,19.20
2022-12-24T05:56:59.959Z,17.37
2022-12-24T05:59:27.053Z,16.43
2022-12-24T06:01:54.238Z,19.33
2022-12-24T06:04:26.653Z,16.33
2022-12-24T06:06:55.919Z,15.30
2022-12-24T06:09:23.057Z,20.63
2022-12-24T06:11:50.233Z,19.80
2022-12-24T06:14:17.353Z,14.40
2022-12-24T06:16:44.463Z,12.50
2022-12-24T06:19:11.585Z,16.57
2022-12-24T06:21:38.715Z,15.67
2022-12-24T06:24:06.064Z,17.57
2022-12-24T06:26:33.194Z,14.90
2022-12-24T06:29:00.301Z,17.13
2022-12-24T06:31:27.547Z,13.60
2022-12-24T06:33:54.806Z,15.27
2022-12-24T06:36:23.388Z,17.80
2022-12-24T06:38:50.904Z,22.50
2022-12-24T06:41:18.886Z,21.10
2022-12-24T06:43:46.756Z,13.70
2022-12-24T06:46:14.184Z,19.63
2022-12-24T06:48:41.361Z,20.43
2022-12-24T06:51:08.491Z,17.93
2022-12-24T06:53:35.589Z,21.00
2022-12-24T06:56:06.494Z,20.83
2022-12-24T06:58:33.953Z,19.60
2022-12-24T07:01:08.651Z,19.93
2022-12-24T07:03:35.875Z,21.63
2022-12-24T07:06:03.291Z,25.10
2022-12-24T07:08:33.664Z,20.83
2022-12-24T07:11:00.867Z,17.13
2022-12-24T07:13:28.153Z,22.83
2022-12-24T07:16:02.372Z,27.67
2022-12-24T07:18:30.064Z,24.43
2022-12-24T07:20:57.191Z,22.23
2022-12-24T07:23:24.370Z,20.33
2022-12-24T07:25:51.462Z,25.77
2022-12-24T07:28:22.452Z,20.67
2022-12-24T07:30:54.570Z,22.60
2022-12-24T07:33:21.800Z,22.97
2022-12-24T07:35:55.605Z,26.83
2022-12-24T07:38:23.023Z,22.57
2022-12-24T07:40:50.135Z,20.97
2022-12-24T07:43:17.261Z,24.33
2022-12-24T07:45:44.405Z,21.50
2022-12-24T07:48:11.575Z,20.87
2022-12-24T07:50:38.690Z,24.40
2022-12-24T07:53:05.834Z,22.90
2022-12-24T07:55:32.945Z,21.17
2022-12-24T07:58:00.102Z,24.43
2022-12-24T08:00:27.249Z,20.83
2022-12-24T08:02:54.630Z,16.43
2022-12-24T08:05:21.938Z,23.20
2022-12-24T08:07:49.154Z,25.20
2022-12-24T08:10:16.301Z,21.57
2022-12-24T08:12:43.490Z,20.20
2022-12-24T08:15:10.841Z,20.03
2022-12-24T08:17:38.050Z,22.17
2022-12-24T08:20:05.654Z,24.27
2022-12-24T08:22:32.757Z,25.13
2022-12-24T08:24:59.854Z,25.57
2022-12-24T08:27:26.941Z,26.33
2022-12-24T08:29:54.067Z,21.87
2022-12-24T08:32:21.172Z,21.73
2022-12-24T08:34:48.261Z,22.93
2022-12-24T08:37:15.360Z,23.77
2022-12-24T08:39:42.504Z,17.50
2022-12-24T08:42:09.780Z,25.20
2022-12-24T08:44:36.921Z,23.03
2022-12-24T08:47:04.058Z,27.07
2022-12-24T08:49:31.188Z,23.83
2022-12-24T08:51:58.411Z,22.33
2022-12-24T08:54:26.962Z,22.20
2022-12-24T08:56:54.071Z,26.53
2022-12-24T08:59:21.227Z,23.97
2022-12-24T09:01:48.512Z,18.33
2022-12-24T09:04:15.755Z,22.50
2022-12-24T09:06:42.916Z,22.43
2022-12-24T09:09:10.068Z,19.87
2022-12-24T09:11:37.510Z,22.77
2022-12-24T09:14:05.561Z,26.23
2022-12-24T09:16:32.789Z,19.80
2022-12-24T09:18:59.907Z,18.07
2022-12-24T09:21:27.084Z,19.50
2022-12-24T09:23:54.244Z,18.87
2022-12-24T09:26:23.072Z,21.07
2022-12-24T09:28:50.474Z,17.27
2022-12-24T09:31:18.015Z,21.07
2022-12-24T09:33:45.750Z,19.77
2022-12-24T09:36:13.005Z,22.10
2022-12-24T09:38:43.261Z,24.40
2022-12-24T09:41:15.284Z,24.83
2022-12-24T09:43:46.884Z,22.70
2022-12-24T09:46:20.023Z,22.53
2022-12-24T09:48:49.985Z,24.07
2022-12-24T09:51:35.263Z,27.10
2022-12-24T09:54:08.462Z,18.47
2022-12-24T09:56:38.271Z,28.20
2022-12-24T09:59:06.857Z,20.97
2022-12-24T10:01:35.449Z,23.30
2022-12-24T10:04:06.105Z,25.07
2022-12-24T10:06:38.565Z,26.00
2022-12-24T10:09:08.773Z,27.77
2022-12-24T10:11:57.249Z,21.47
2022-12-24T10:14:28.820Z,21.47
2022-12-24T10:17:04.210Z,22.40
2022-12-24T10:19:53.181Z,24.10
2022-12-24T10:22:40.541Z,21.60
2022-12-24T10:25:13.493Z,28.83
2022-12-24T10:27:40.793Z,28.60
2022-12-24T10:30:17.258Z,17.70
2022-12-24T10:32:46.065Z,20.43
2022-12-24T10:35:16.303Z,22.37
2022-12-24T10:37:45.178Z,30.33
2022-12-24T10:40:21.697Z,20.07
2022-12-24T10:42:51.492Z,27.00
2022-12-24T10:45:21.472Z,25.40
2022-12-24T10:47:50.214Z,25.90
2022-12-24T10:50:23.297Z,27.17
2022-12-24T10:52:52.001Z,19.43
2022-12-24T10:55:19.102Z,22.10
2022-12-24T10:57:47.991Z,20.30
2022-12-24T11:00:22.976Z,28.87
2022-12-24T11:02:51.381Z,24.17
2022-12-24T11:05:30.121Z,27.97
2022-12-24T11:08:18.187Z,22.63
2022-12-24T11:10:46.255Z,20.73
2022-12-24T11:13:39.958Z,24.20
2022-12-24T11:16:22.323Z,23.27
2022-12-24T11:18:52.324Z,28.60
2022-12-24T11:21:23.594Z,20.40
2022-12-24T11:23:55.506Z,24.90
2022-12-24T11:26:23.597Z,28.40
2022-12-24T11:29:14.493Z,31.73
2022-12-24T11:31:42.175Z,31.13
2022-12-24T11:34:24.698Z,22.73
2022-12-24T11:36:52.560Z,30.27
2022-12-24T11:39:23.696Z,28.07
2022-12-24T11:41:51.350Z,23.40
2022-12-24T11:44:26.679Z,26.40
2022-12-24T11:46:56.995Z,26.70
2022-12-24T11:49:24.327Z,20.53
2022-12-24T11:52:06.899Z,28.57
2022-12-24T11:54:37.734Z,22.50
2022-12-24T11:57:04.886Z,25.50
2022-12-24T11:59:40.890Z,22.87
2022-12-24T12:02:19.851Z,21.73
2022-12-24T12:04:50.246Z,24.97
2022-12-24T12:07:17.393Z,24.20
2022-12-24T12:09:46.713Z,18.77
2022-12-24T12:12:15.993Z,18.77
2022-12-24T12:14:48.814Z,19.43
2022-12-24T12:17:16.719Z,24.43
2022-12-24T12:19:49.142Z,21.53
2022-12-24T12:22:25.168Z,17.23
2022-12-24T12:24:53.861Z,22.40
2022-12-24T12:27:47.307Z,16.60
2022-12-24T12:30:18.694Z,15.53
2022-12-24T12:32:49.440Z,21.57
2022-12-24T12:35:25.490Z,25.23
2022-12-24T12:37:56.459Z,26.70
2022-12-24T12:40:27.306Z,30.30
2022-12-24T12:43:02.037Z,21.00
2022-12-24T12:45:49.129Z,22.80
2022-12-24T12:48:26.650Z,22.47
2022-12-24T12:50:59.294Z,26.33
2022-12-24T12:53:40.820Z,22.97
2022-12-24T12:56:07.922Z,23.83
2022-12-24T12:58:42.369Z,23.63
2022-12-24T13:01:15.310Z,22.40
2022-12-24T13:03:51.580Z,21.50
2022-12-24T13:06:24.452Z,23.83
2022-12-24T13:09:03.858Z,25.00
2022-12-24T13:11:33.781Z,20.03
2022-12-24T13:14:12.748Z,25.83
2022-12-24T13:16:46.299Z,24.40
2022-12-24T13:19:37.852Z,27.40
2022-12-24T13:22:05.995Z,22.00
2022-12-24T13:24:33.292Z,22.80
2022-12-24T13:27:06.697Z,20.33
2022-12-24T13:29:36.619Z,24.37
2022-12-24T13:32:22.278Z,24.30
2022-12-24T13:34:50.560Z,25.57
2022-12-24T13:37:24.991Z,22.23
2022-12-24T13:40:21.282Z,25.00
2022-12-24T13:42:48.390Z,23.73
2022-12-24T13:45:33.540Z,30.50
2022-12-24T13:48:17.631Z,24.40
2022-12-24T13:50:49.404Z,27.13
2022-12-24T13:53:29.543Z,27.03
2022-12-24T13:55:58.389Z,25.27
2022-12-24T13:58:26.353Z,27.57
2022-12-24T14:01:05.206Z,25.30
2022-12-24T14:03:35.139Z,25.10
2022-12-24T14:06:07.606Z,27.30
2022-12-24T14:08:42.401Z,31.63
2022-12-24T14:11:12.481Z,30.70
2022-12-24T14:13:39.608Z,25.87
2022-12-24T14:16:10.021Z,22.77
2022-12-24T14:18:42.160Z,24.03
2022-12-24T14:21:16.626Z,30.03
2022-12-24T14:23:57.436Z,32.37
2022-12-24T14:26:28.076Z,31.73
2022-12-24T14:28:55.461Z,33.20
2022-12-24T14:31:22.919Z,25.97
2022-12-24T14:33:50.062Z,31.87
2022-12-24T14:36:21.000Z,32.50
2022-12-24T14:38:49.832Z,30.40
2022-12-24T14:41:40.121Z,26.33
2022-12-24T14:44:19.541Z,25.23
2022-12-24T14:46:49.520Z,28.97
2022-12-24T14:49:25.569Z,26.47
2022-12-24T14:52:01.269Z,21.60
2022-12-24T14:54:54.634Z,21.80
2022-12-24T14:57:23.290Z,23.63
2022-12-24T14:59:57.988Z,23.63
2022-12-24T15:02:43.807Z,26.53
2022-12-24T15:05:21.778Z,23.67
2022-12-24T15:07:51.959Z,21.73
2022-12-24T15:10:29.654Z,21.47
2022-12-24T15:12:57.787Z,23.80
2022-12-24T15:15:25.427Z,23.43
2022-12-24T15:17:53.053Z,20.87
2022-12-24T15:20:23.143Z,23.50
2022-12-24T15:22:55.618Z,21.67
2022-12-24T15:25:25.746Z,26.57
2022-12-24T15:27:52.859Z,21.47
2022-12-24T15:30:21.579Z,26.10
2022-12-24T15:32:50.780Z,24.30
2022-12-24T15:35:34.202Z,25.73
2022-12-24T15:38:02.446Z,33.00
2022-12-24T15:40:29.799Z,25.53
2022-12-24T15:42:57.013Z,27.70
2022-12-24T15:45:28.397Z,31.03
2022-12-24T15:48:01.174Z,29.30
2022-12-24T15:50:38.755Z,25.37
2022-12-24T15:53:18.785Z,33.33
2022-12-24T15:55:59.888Z,28.70
2022-12-24T15:58:28.318Z,25.77
2022-12-24T16:01:01.670Z,22.47
2022-12-24T16:03:28.860Z,30.73
2022-12-24T16:06:05.217Z,26.97
2022-12-24T16:08:33.677Z,26.07
2022-12-24T16:11:06.791Z,33.00
2022-12-24T16:13:39.258Z,33.20
2022-12-24T16:16:07.987Z,33.00
2022-12-24T16:18:43.463Z,30.77
2022-12-24T16:21:10.635Z,37.17
2022-12-24T16:23:37.727Z,29.83
2022-12-24T16:26:04.946Z,32.10
2022-12-24T16:28:32.665Z,26.60
2022-12-24T16:30:59.895Z,26.23
2022-12-24T16:33:27.167Z,31.97
2022-12-24T16:35:54.329Z,29.30
2022-12-24T16:38:21.759Z,26.97
2022-12-24T16:40:48.966Z,29.80
2022-12-24T16:43:34.866Z,24.37
2022-12-24T16:46:03.235Z,31.87
2022-12-24T16:48:30.626Z,37.07
2022-12-24T16:50:57.853Z,36.43
2022-12-24T16:53:24.992Z,27.27
2022-12-24T16:55:53.343Z,25.60
2022-12-24T16:58:20.906Z,29.10
2022-12-24T17:00:48.085Z,30.23
2022-12-24T17:03:15.542Z,31.33
2022-12-24T17:05:43.812Z,27.17
2022-12-24T17:08:11.266Z,28.87
2022-12-24T17:10:38.387Z,28.30
2022-12-24T17:13:05.629Z,24.60
2022-12-24T17:15:32.972Z,27.70
2022-12-24T17:18:00.111Z,30.53
2022-12-24T17:20:27.315Z,24.40
2022-12-24T17:22:54.580Z,28.40
2022-12-24T17:25:21.719Z,28.67
2022-12-24T17:27:48.844Z,28.67
2022-12-24T17:30:16.354Z,36.60
2022-12-24T19:52:51.737Z,36.00
2022-12-24T19:55:18.854Z,36.43
2022-12-24T19:57:45.928Z,34.00
2022-12-24T20:00:13.328Z,28.00
2022-12-24T20:02:40.684Z,28.43
2022-12-24T20:05:08.113Z,34.03
2022-12-24T20:07:35.281Z,36.67
2022-12-24T20:10:02.382Z,34.97
2022-12-24T20:12:29.561Z,31.50
2022-12-24T20:14:57.539Z,32.67
2022-12-24T20:17:24.764Z,29.47
2022-12-24T20:19:51.961Z,34.53
2022-12-24T20:22:19.107Z,32.30
2022-12-24T20:24:46.302Z,30.00
2022-12-24T20:27:13.478Z,27.03
2022-12-24T20:29:40.646Z,26.60
2022-12-24T20:32:07.988Z,25.63
2022-12-24T20:34:35.180Z,27.87
2022-12-24T20:37:02.285Z,31.30
2022-12-24T20:39:29.439Z,28.57
2022-12-24T20:41:56.538Z,25.97
2022-12-24T20:44:23.602Z,33.40
2022-12-24T20:46:50.721Z,30.07
2022-12-24T20:49:17.837Z,29.37
2022-12-24T20:51:44.965Z,32.27
2022-12-24T20:54:12.084Z,32.93
2022-12-24T20:56:39.206Z,49.53
2022-12-24T20:59:06.383Z,46.33
2022-12-24T21:01:34.397Z,45.03
2022-12-24T21:04:04.850Z,44.33
2022-12-24T21:06:32.531Z,39.27
2022-12-24T21:08:59.649Z,41.13
2022-12-24T21:11:47.048Z,34.73
2022-12-24T21:14:14.646Z,34.33
2022-12-24T21:16:41.816Z,30.17
2022-12-24T21:19:09.942Z,36.70
2022-12-24T21:21:37.118Z,38.53
2022-12-24T21:24:04.769Z,33.60
2022-12-24T21:26:32.305Z,30.13
2022-12-24T21:28:59.859Z,44.33
2022-12-24T21:31:27.054Z,29.93
2022-12-24T21:33:54.802Z,30.97
2022-12-24T21:36:21.921Z,34.33
2022-12-24T21:38:49.156Z,26.00
2022-12-24T21:41:17.760Z,31.10
2022-12-24T21:43:45.415Z,31.67
2022-12-24T21:46:13.922Z,35.77
2022-12-24T21:49:00.043Z,36.63
2022-12-24T21:51:27.810Z,31.43
2022-12-24T21:54:14.071Z,36.77
2022-12-24T21:57:00.635Z,31.20
2022-12-24T21:59:28.448Z,33.03
2022-12-24T22:01:56.174Z,38.10
2022-12-24T22:04:23.990Z,35.00
2022-12-24T22:07:10.002Z,39.10
2022-12-24T22:09:57.107Z,33.60
2022-12-24T22:12:24.874Z,36.43
2022-12-24T22:14:52.108Z,32.03
2022-12-24T22:17:24.746Z,32.23
2022-12-24T22:19:52.796Z,33.63
2022-12-24T22:22:19.938Z,34.60
2022-12-24T22:24:47.045Z,30.70
2022-12-24T22:27:14.151Z,25.50
2022-12-24T22:29:41.320Z,32.90
2022-12-24T22:32:08.460Z,34.40
2022-12-24T22:34:36.096Z,29.20
2022-12-24T22:37:03.328Z,33.13
2022-12-24T22:39:30.451Z,32.63
2022-12-24T22:42:00.637Z,35.37
2022-12-24T22:44:27.797Z,41.17
2022-12-24T22:46:54.947Z,40.27
2022-12-24T22:49:22.049Z,29.10
2022-12-24T22:51:49.278Z,25.87
2022-12-24T22:54:16.483Z,30.67
2022-12-24T22:56:43.810Z,32.37
2022-12-24T22:59:13.774Z,27.67
2022-12-24T23:01:41.788Z,33.43
2022-12-24T23:04:09.181Z,43.70
2022-12-24T23:06:36.470Z,53.23
2022-12-24T23:09:04.876Z,50.47
2022-12-24T23:11:32.225Z,45.63
2022-12-24T23:14:17.996Z,54.60
2022-12-24T23:16:45.209Z,43.20
2022-12-24T23:19:12.829Z,32.30
2022-12-24T23:21:39.972Z,31.37
2022-12-24T23:24:07.253Z,27.97
2022-12-24T23:26:34.352Z,31.80
2022-12-24T23:29:01.486Z,27.47
2022-12-24T23:31:28.807Z,54.40
2022-12-24T23:33:55.916Z,66.30
2022-12-24T23:36:23.024Z,37.57
2022-12-24T23:38:50.188Z,23.67
2022-12-24T23:41:21.611Z,29.30
2022-12-24T23:43:48.724Z,24.87
2022-12-24T23:46:16.805Z,27.57
2022-12-24T23:48:45.870Z,24.23
2022-12-24T23:51:14.815Z,25.47
2022-12-24T23:53:41.962Z,22.17
2022-12-24T23:56:11.418Z,21.80
2022-12-24T23:58:39.080Z,20.50
